createdAt,value
2022-08-20T00:00:46.419Z,7.50
2022-08-20T00:03:27.697Z,8.10
2022-08-20T00:08:31.032Z,4.03
2022-08-20T00:11:01.157Z,6.45
2022-08-20T00:13:37.830Z,5.30
2022-08-20T00:16:06.605Z,6.05
2022-08-20T00:18:36.970Z,5.75
2022-08-20T00:21:06.701Z,4.50
2022-08-20T00:23:33.276Z,5.88
2022-08-20T00:25:59.900Z,8.13
2022-08-20T00:28:26.446Z,7.07
2022-08-20T00:30:53.008Z,6.80
2022-08-20T00:33:22.455Z,4.20
2022-08-20T00:35:53.543Z,5.00
2022-08-20T00:38:20.537Z,5.75
2022-08-20T00:40:51.064Z,3.65
2022-08-20T00:43:36.217Z,4.35
2022-08-20T00:46:06.989Z,6.45
2022-08-20T00:48:36.010Z,4.53
2022-08-20T00:51:10.095Z,4.95
2022-08-20T00:53:37.592Z,6.38
2022-08-20T00:56:06.890Z,8.23
2022-08-20T00:58:34.353Z,5.88
2022-08-20T01:01:01.658Z,9.77
2022-08-20T01:03:28.226Z,6.03
2022-08-20T01:05:54.775Z,8.15
2022-08-20T01:08:24.642Z,7.10
2022-08-20T01:10:53.879Z,8.77
2022-08-20T01:13:22.490Z,7.72
2022-08-20T01:15:51.978Z,8.75
2022-08-20T01:18:21.194Z,8.30
2022-08-20T01:20:54.444Z,8.90
2022-08-20T01:23:32.657Z,10.18
2022-08-20T01:26:10.882Z,6.15
2022-08-20T01:28:45.415Z,7.65
2022-08-20T01:31:15.626Z,6.65
2022-08-20T01:33:44.860Z,6.70
2022-08-20T01:36:14.056Z,8.65
2022-08-20T01:38:40.956Z,7.07
2022-08-20T01:41:29.358Z,10.88
2022-08-20T01:43:58.567Z,9.50
2022-08-20T01:46:33.040Z,8.30
2022-08-20T01:49:21.026Z,9.80
2022-08-20T01:51:52.392Z,13.00
2022-08-20T01:54:19.408Z,11.65
2022-08-20T01:56:59.867Z,12.27
2022-08-20T01:59:26.772Z,12.43
2022-08-20T02:01:55.082Z,10.43
2022-08-20T02:04:21.949Z,12.30
2022-08-20T02:06:56.262Z,10.45
2022-08-20T02:09:30.209Z,8.90
2022-08-20T02:11:57.786Z,10.60
2022-08-20T02:14:25.035Z,10.38
2022-08-20T02:16:54.899Z,10.05
2022-08-20T02:19:34.248Z,8.90
2022-08-20T02:22:04.466Z,12.48
2022-08-20T02:24:31.105Z,8.75
2022-08-20T02:26:57.632Z,10.25
2022-08-20T02:29:24.219Z,10.93
2022-08-20T02:32:25.155Z,10.95
2022-08-20T02:34:37.968Z,11.45
2022-08-20T02:37:06.328Z,13.07
2022-08-20T02:39:34.077Z,12.65
2022-08-20T02:42:02.757Z,12.27
2022-08-20T02:44:31.182Z,14.13
2022-08-20T02:46:58.381Z,14.18
2022-08-20T02:49:24.981Z,16.38
2022-08-20T02:51:51.526Z,18.45
2022-08-20T02:54:18.124Z,19.55
2022-08-20T02:56:44.982Z,20.50
2022-08-20T02:59:13.708Z,19.65
2022-08-20T03:01:46.400Z,18.25
2022-08-20T03:04:12.965Z,20.45
2022-08-20T03:06:39.615Z,20.58
2022-08-20T03:09:07.802Z,20.52
2022-08-20T03:11:34.975Z,22.25
2022-08-20T03:14:02.256Z,23.95
2022-08-20T03:16:28.852Z,23.08
2022-08-20T03:18:55.855Z,23.40
2022-08-20T03:21:22.388Z,23.05
2022-08-20T03:23:49.027Z,26.35
2022-08-20T03:26:16.476Z,25.65
2022-08-20T03:28:43.510Z,25.58
2022-08-20T03:31:10.226Z,17.95
2022-08-20T03:33:39.636Z,23.70
2022-08-20T03:36:28.124Z,21.15
2022-08-20T03:38:57.889Z,22.50
2022-08-20T03:41:25.276Z,23.23
2022-08-20T03:43:52.694Z,18.45
2022-08-20T03:46:23.550Z,18.85
2022-08-20T03:51:29.985Z,20.15
2022-08-20T03:53:57.302Z,20.27
2022-08-20T03:56:24.125Z,18.17
2022-08-20T03:58:50.714Z,17.25
2022-08-20T04:01:44.314Z,17.98
2022-08-20T04:04:04.448Z,18.25
2022-08-20T04:06:30.997Z,23.50
2022-08-20T04:08:57.718Z,21.38
2022-08-20T04:11:24.434Z,20.65
2022-08-20T04:13:51.303Z,22.10
2022-08-20T04:16:18.265Z,18.55
2022-08-20T04:19:01.545Z,24.75
2022-08-20T04:21:33.083Z,22.33
2022-08-20T04:24:00.604Z,23.38
2022-08-20T04:26:27.166Z,17.38
2022-08-20T04:28:55.769Z,19.92
2022-08-20T04:31:25.312Z,19.58
2022-08-20T04:33:52.638Z,20.27
2022-08-20T04:36:19.321Z,18.00
2022-08-20T04:38:48.088Z,17.67
2022-08-20T04:41:23.208Z,19.00
2022-08-20T04:43:51.794Z,18.25
2022-08-20T04:46:19.346Z,18.75
2022-08-20T04:48:50.094Z,19.20
2022-08-20T04:53:51.666Z,23.65
2022-08-20T04:56:23.213Z,21.80
2022-08-20T04:58:51.268Z,22.83
2022-08-20T05:01:18.476Z,20.50
2022-08-20T05:03:47.787Z,23.77
2022-08-20T05:06:16.056Z,19.65
2022-08-20T05:08:43.179Z,17.92
2022-08-20T05:11:34.620Z,18.30
2022-08-20T05:13:57.227Z,16.63
2022-08-20T05:16:24.645Z,17.90
2022-08-20T05:18:52.726Z,16.33
2022-08-20T05:21:20.612Z,14.95
2022-08-20T05:23:47.394Z,15.77
2022-08-20T05:26:15.896Z,16.27
2022-08-20T05:28:53.879Z,14.10
2022-08-20T05:31:32.536Z,15.13
2022-08-20T05:34:10.729Z,12.85
2022-08-20T05:36:49.679Z,12.23
2022-08-20T05:39:18.376Z,15.18
2022-08-20T05:41:45.134Z,14.23
2022-08-20T05:44:14.036Z,14.18
2022-08-20T05:46:42.701Z,13.82
2022-08-20T05:49:16.329Z,11.57
2022-08-20T05:51:43.763Z,17.67
2022-08-20T05:54:11.006Z,13.55
2022-08-20T05:56:39.527Z,12.50
2022-08-20T05:59:07.420Z,11.05
2022-08-20T06:01:36.372Z,12.90
2022-08-20T06:04:22.222Z,12.13
2022-08-20T06:06:51.121Z,11.35
2022-08-20T06:09:27.931Z,11.35
2022-08-20T06:12:03.281Z,10.77
2022-08-20T06:17:02.915Z,11.85
2022-08-20T06:19:32.085Z,11.57
2022-08-20T06:21:59.413Z,10.95
2022-08-20T06:24:26.952Z,8.27
2022-08-20T06:26:57.569Z,16.13
2022-08-20T06:29:24.243Z,37.83
2022-08-20T06:31:50.756Z,43.95
2022-08-20T06:34:18.743Z,23.83
2022-08-20T06:36:48.334Z,11.85
2022-08-20T06:39:15.997Z,10.35
2022-08-20T06:41:42.649Z,12.65
2022-08-20T06:44:10.137Z,13.00
2022-08-20T06:46:37.654Z,14.73
2022-08-20T06:49:08.575Z,7.78
2022-08-20T06:51:37.331Z,8.45
2022-08-20T06:54:05.256Z,7.70
2022-08-20T06:56:33.517Z,9.35
2022-08-20T06:59:00.150Z,7.35
2022-08-20T07:01:26.720Z,6.50
2022-08-20T07:03:55.307Z,7.28
2022-08-20T07:06:25.516Z,6.30
2022-08-20T07:08:53.058Z,8.50
2022-08-20T07:11:26.566Z,9.10
2022-08-20T07:13:56.554Z,9.48
2022-08-20T07:16:23.142Z,10.15
2022-08-20T07:18:49.677Z,9.07
2022-08-20T07:21:17.471Z,9.82
2022-08-20T07:23:44.558Z,9.20
2022-08-20T07:26:11.135Z,9.85
2022-08-20T07:28:37.686Z,9.13
2022-08-20T07:31:22.897Z,11.18
2022-08-20T07:33:50.557Z,11.48
2022-08-20T07:36:17.749Z,10.85
2022-08-20T07:38:47.209Z,12.05
2022-08-20T07:41:17.712Z,10.98
2022-08-20T08:01:06.537Z,12.70
2022-08-20T08:24:21.786Z,6.43
2022-08-20T08:26:50.214Z,4.93
2022-08-20T08:29:17.204Z,7.18
2022-08-20T08:31:43.987Z,6.28
2022-08-20T08:34:10.566Z,5.65
2022-08-20T08:36:39.329Z,7.20
2022-08-20T08:39:05.997Z,5.00
2022-08-20T08:41:40.912Z,6.63
2022-08-20T08:44:12.523Z,6.88
2022-08-20T08:46:43.024Z,5.63
2022-08-20T08:49:12.961Z,7.22
2022-08-20T08:51:46.397Z,6.13
2022-08-20T08:54:22.489Z,6.95
2022-08-20T08:56:50.606Z,5.32
2022-08-20T08:59:18.281Z,7.95
2022-08-20T09:01:54.085Z,7.38
2022-08-20T09:04:28.490Z,6.47
2022-08-20T09:06:55.073Z,6.40
2022-08-20T09:09:25.614Z,7.78
2022-08-20T09:11:55.855Z,8.43
2022-08-20T09:14:24.983Z,7.40
2022-08-20T09:16:52.818Z,7.53
2022-08-20T09:19:20.227Z,5.45
2022-08-20T09:21:48.731Z,7.38
2022-08-20T09:24:15.391Z,9.23
2022-08-20T09:26:42.055Z,6.30
2022-08-20T09:32:54.630Z,5.93
2022-08-20T09:35:31.930Z,4.70
2022-08-20T09:41:44.683Z,4.28
2022-08-20T09:44:11.218Z,3.75
2022-08-20T09:46:37.751Z,3.42
2022-08-20T09:49:04.312Z,3.05
2022-08-20T09:51:33.920Z,4.20
2022-08-20T09:54:05.320Z,4.07
2022-08-20T09:56:34.406Z,3.90
2022-08-20T09:59:02.913Z,3.50
2022-08-20T10:01:29.660Z,5.05
2022-08-20T10:03:56.322Z,3.60
2022-08-20T10:06:22.870Z,3.53
2022-08-20T10:08:49.716Z,3.30
2022-08-20T10:11:18.026Z,3.50
2022-08-20T10:13:45.016Z,3.58
2022-08-20T10:16:11.587Z,3.55
2022-08-20T10:18:38.263Z,4.03
2022-08-20T10:21:10.413Z,2.92
2022-08-20T10:23:36.945Z,4.00
2022-08-20T10:26:03.784Z,3.50
2022-08-20T10:28:30.324Z,4.88
2022-08-20T10:30:56.840Z,7.10
2022-08-20T10:33:23.486Z,7.43
2022-08-20T10:35:50.061Z,8.77
2022-08-20T10:38:17.238Z,9.65
2022-08-20T10:40:49.802Z,13.70
2022-08-20T10:43:19.285Z,10.93
2022-08-20T10:45:45.819Z,10.82
2022-08-20T10:48:12.388Z,12.77
2022-08-20T10:50:38.961Z,13.48
2022-08-20T10:53:05.520Z,15.73
2022-08-20T10:55:32.222Z,14.15
2022-08-20T10:57:58.899Z,13.63
2022-08-20T11:00:25.860Z,13.25
2022-08-20T11:02:52.622Z,13.13
2022-08-20T11:05:19.298Z,13.68
2022-08-20T11:08:08.462Z,8.43
2022-08-20T11:10:34.619Z,9.48
2022-08-20T11:13:02.913Z,11.40
2022-08-20T11:15:29.495Z,10.65
2022-08-20T11:17:56.774Z,13.50
2022-08-20T11:20:27.781Z,13.15
2022-08-20T11:22:54.809Z,10.40
2022-08-20T11:25:21.515Z,14.00
2022-08-20T11:27:50.229Z,12.43
2022-08-20T11:30:43.110Z,11.95
2022-08-20T11:33:09.652Z,14.90
2022-08-20T11:35:48.866Z,16.63
2022-08-20T11:38:16.365Z,13.88
2022-08-20T11:40:42.951Z,12.50
2022-08-20T11:43:17.723Z,15.27
2022-08-20T11:45:50.663Z,15.57
2022-08-20T11:48:18.214Z,16.05
2022-08-20T11:50:45.366Z,12.40
2022-08-20T11:53:11.940Z,14.90
2022-08-20T11:55:38.652Z,10.20
2022-08-20T11:58:05.950Z,10.80
2022-08-20T12:00:34.263Z,15.45
2022-08-20T12:03:02.276Z,10.73
2022-08-20T12:05:30.020Z,13.98
2022-08-20T12:07:57.622Z,10.20
2022-08-20T12:10:26.401Z,10.52
2022-08-20T12:12:53.018Z,9.95
2022-08-20T12:15:20.105Z,7.93
2022-08-20T12:17:46.680Z,10.73
2022-08-20T12:20:14.438Z,7.50
2022-08-20T12:22:41.146Z,6.85
2022-08-20T12:25:08.610Z,9.23
2022-08-20T12:27:36.198Z,7.47
2022-08-20T12:30:06.781Z,8.80
2022-08-20T12:32:34.432Z,10.27
2022-08-20T12:35:01.186Z,8.10
2022-08-20T12:37:30.571Z,6.38
2022-08-20T12:39:58.944Z,9.97
2022-08-20T12:42:26.374Z,5.72
2022-08-20T12:44:52.971Z,6.85
2022-08-20T12:47:22.589Z,6.70
2022-08-20T12:49:52.275Z,5.95
2022-08-20T12:52:20.606Z,5.03
2022-08-20T12:54:47.445Z,6.13
2022-08-20T12:57:24.390Z,4.30
2022-08-20T12:59:50.956Z,5.00
2022-08-20T13:02:20.389Z,5.85
2022-08-20T13:04:47.118Z,6.30
2022-08-20T13:07:14.476Z,5.05
2022-08-20T13:09:42.854Z,5.65
2022-08-20T13:12:10.456Z,4.20
2022-08-20T13:14:38.293Z,4.60
2022-08-20T13:17:05.004Z,5.93
2022-08-20T13:19:35.164Z,5.28
2022-08-20T13:22:02.439Z,3.88
2022-08-20T13:24:29.107Z,4.55
2022-08-20T13:27:04.287Z,5.70
2022-08-20T13:29:30.836Z,6.22
2022-08-20T13:31:57.353Z,5.53
2022-08-20T13:34:23.898Z,6.82
2022-08-20T13:36:50.473Z,6.30
2022-08-20T13:39:17.032Z,6.55
2022-08-20T13:41:44.239Z,4.68
2022-08-20T13:44:10.906Z,5.72
2022-08-20T13:46:37.458Z,5.28
2022-08-20T13:49:04.459Z,5.85
2022-08-20T13:51:30.982Z,5.70
2022-08-20T13:53:57.562Z,5.05
2022-08-20T13:56:24.261Z,4.70
2022-08-20T13:58:50.804Z,5.15
2022-08-20T14:01:19.720Z,5.75
2022-08-20T14:03:47.879Z,2.83
2022-08-20T14:06:15.026Z,2.83
2022-08-20T14:08:41.607Z,6.35
2022-08-20T14:11:08.160Z,3.85
2022-08-20T14:13:40.512Z,3.95
2022-08-20T14:16:25.242Z,3.42
2022-08-20T14:18:56.259Z,6.30
2022-08-20T14:21:22.770Z,6.90
2022-08-20T14:23:49.324Z,5.40
2022-08-20T14:26:15.840Z,3.72
2022-08-20T14:28:42.421Z,4.05
2022-08-20T14:31:08.971Z,3.65
2022-08-20T14:33:36.275Z,2.35
2022-08-20T14:36:03.099Z,5.45
2022-08-20T14:38:29.678Z,3.10
2022-08-20T14:40:56.253Z,3.83
2022-08-20T14:43:22.817Z,3.53
2022-08-20T14:45:49.398Z,5.70
2022-08-20T14:48:16.023Z,4.07
2022-08-20T14:50:43.028Z,7.30
2022-08-20T14:53:09.745Z,5.25
2022-08-20T14:55:37.608Z,3.95
2022-08-20T14:58:08.955Z,4.32
2022-08-20T15:00:35.691Z,5.03
2022-08-20T15:03:02.426Z,3.80
2022-08-20T15:05:29.742Z,3.40
2022-08-20T15:07:57.218Z,4.57
2022-08-20T15:10:31.860Z,5.18
2022-08-20T15:12:59.340Z,6.72
2022-08-20T15:15:26.345Z,8.55
2022-08-20T15:17:55.149Z,4.13
2022-08-20T15:20:24.407Z,2.38
2022-08-20T15:22:51.510Z,3.70
2022-08-20T15:25:22.249Z,4.32
2022-08-20T15:27:49.235Z,4.07
2022-08-20T15:30:19.082Z,3.97
2022-08-20T15:32:46.066Z,4.65
2022-08-20T15:35:13.313Z,4.68
2022-08-20T15:37:43.036Z,2.88
2022-08-20T15:40:11.737Z,2.78
2022-08-20T15:42:39.587Z,3.15
2022-08-20T15:45:07.641Z,3.38
2022-08-20T15:47:49.951Z,2.83
2022-08-20T15:50:33.712Z,2.92
2022-08-20T15:53:10.838Z,3.95
2022-08-20T15:55:41.271Z,4.85
2022-08-20T15:58:15.224Z,3.65
2022-08-20T16:00:54.342Z,3.90
2022-08-20T16:03:39.640Z,4.07
2022-08-20T16:06:21.813Z,4.70
2022-08-20T16:09:07.336Z,6.35
2022-08-20T16:11:53.397Z,5.20
2022-08-20T16:14:22.397Z,3.80
2022-08-20T16:17:01.140Z,4.57
2022-08-20T16:19:33.008Z,3.55
2022-08-20T16:21:59.904Z,3.90
2022-08-20T16:24:26.461Z,5.25
2022-08-20T16:27:01.307Z,5.88
2022-08-20T16:29:33.934Z,5.78
2022-08-20T16:32:04.697Z,4.75
2022-08-20T16:34:38.857Z,2.95
2022-08-20T16:37:29.018Z,4.72
2022-08-20T16:39:58.388Z,4.32
2022-08-20T16:42:26.287Z,6.32
2022-08-20T16:44:54.492Z,5.32
2022-08-20T16:47:30.111Z,4.75
2022-08-20T16:50:02.199Z,4.72
2022-08-20T16:52:28.775Z,5.40
2022-08-20T16:54:55.697Z,6.35
2022-08-20T16:57:22.433Z,5.68
2022-08-20T16:59:58.586Z,4.32
2022-08-20T17:02:26.164Z,5.32
2022-08-20T17:04:59.417Z,6.90
2022-08-20T17:07:29.892Z,4.80
2022-08-20T17:10:20.646Z,5.57
2022-08-20T17:12:52.944Z,8.02
2022-08-20T17:15:23.157Z,5.22
2022-08-20T17:17:49.805Z,5.00
2022-08-20T17:20:20.546Z,6.10
2022-08-20T17:23:09.922Z,6.80
2022-08-20T17:25:38.383Z,7.13
2022-08-20T17:28:19.775Z,7.30
2022-08-20T17:30:47.391Z,8.70
2022-08-20T17:33:26.526Z,6.13
2022-08-20T17:35:59.541Z,7.68
2022-08-20T17:38:37.768Z,14.35
2022-08-20T17:41:13.937Z,13.85
2022-08-20T17:43:44.638Z,13.25
2022-08-20T17:46:17.470Z,11.45
2022-08-20T17:48:46.723Z,12.43
2022-08-20T17:51:22.555Z,11.18
2022-08-20T17:54:00.265Z,12.50
2022-08-20T17:56:31.218Z,11.77
2022-08-20T17:59:05.881Z,12.45
2022-08-20T18:01:33.566Z,11.13
2022-08-20T18:04:00.237Z,10.50
2022-08-20T18:06:34.468Z,12.45
2022-08-20T18:09:17.907Z,15.07
2022-08-20T18:15:27.238Z,10.02
2022-08-20T18:18:15.461Z,13.15
2022-08-20T18:25:13.919Z,14.13
2022-08-20T18:27:44.244Z,12.18
2022-08-20T18:30:17.624Z,16.97
2022-08-20T18:32:46.323Z,18.40
2022-08-20T18:35:19.128Z,11.93
2022-08-20T18:37:45.728Z,13.55
2022-08-20T18:40:30.202Z,8.10
2022-08-20T18:43:00.184Z,15.45
2022-08-20T18:45:35.812Z,10.57
2022-08-20T18:48:03.475Z,11.50
2022-08-20T18:50:38.772Z,8.63
2022-08-20T18:53:20.593Z,10.40
2022-08-20T18:56:00.229Z,11.90
2022-08-20T18:58:52.576Z,11.68
2022-08-20T19:01:19.477Z,12.68
2022-08-20T19:03:49.739Z,12.10
2022-08-20T19:06:25.602Z,7.85
2022-08-20T19:09:00.203Z,10.98
2022-08-20T19:11:55.982Z,15.80
2022-08-20T19:14:40.969Z,9.95
2022-08-20T19:17:12.011Z,13.23
2022-08-20T19:19:38.658Z,13.18
2022-08-20T19:22:05.347Z,10.25
2022-08-20T19:24:34.464Z,9.45
2022-08-20T19:27:07.983Z,15.35
2022-08-20T19:29:42.133Z,12.35
2022-08-20T19:32:18.176Z,15.80
2022-08-20T19:34:52.255Z,12.77
2022-08-20T19:37:35.348Z,10.15
2022-08-20T19:40:08.788Z,14.13
2022-08-20T19:42:42.848Z,16.95
2022-08-20T19:45:26.703Z,13.27
2022-08-20T19:47:57.122Z,14.02
2022-08-20T19:50:33.669Z,12.60
2022-08-20T19:53:30.064Z,15.02
2022-08-20T19:56:04.817Z,13.02
2022-08-20T19:58:32.449Z,13.82
2022-08-20T20:01:00.691Z,15.15
2022-08-20T20:03:30.062Z,10.48
2022-08-20T20:06:16.166Z,12.63
2022-08-20T20:08:58.360Z,15.55
2022-08-20T20:11:30.740Z,15.65
2022-08-20T20:14:06.570Z,15.32
2022-08-20T20:16:34.148Z,14.90
2022-08-20T20:19:24.758Z,12.57
2022-08-20T20:21:50.707Z,15.80
2022-08-20T20:24:29.627Z,14.98
2022-08-20T20:26:58.784Z,13.35
2022-08-20T20:29:28.108Z,15.85
2022-08-20T20:31:57.284Z,14.15
2022-08-20T20:34:55.696Z,13.52
2022-08-20T20:37:50.747Z,15.38
2022-08-20T20:40:35.898Z,15.55
2022-08-20T20:43:08.871Z,13.48
2022-08-20T20:45:40.189Z,11.25
2022-08-20T20:50:51.720Z,11.63
2022-08-20T20:53:51.308Z,19.75
2022-08-20T20:56:29.759Z,16.13
2022-08-20T20:58:56.435Z,15.82
2022-08-20T21:01:27.344Z,17.42
2022-08-20T21:04:09.929Z,13.10
2022-08-20T21:06:36.654Z,15.05
2022-08-20T21:09:03.234Z,12.38
2022-08-20T21:11:29.819Z,17.65
2022-08-20T21:13:56.585Z,11.95
2022-08-20T21:16:23.143Z,16.05
2022-08-20T21:18:49.682Z,12.38
2022-08-20T21:21:16.256Z,16.65
2022-08-20T21:23:42.822Z,10.15
2022-08-20T21:26:09.771Z,14.40
2022-08-20T21:28:36.331Z,16.13
2022-08-20T21:31:03.095Z,18.60
2022-08-20T21:33:29.664Z,13.48
2022-08-20T21:35:56.890Z,16.05
2022-08-20T21:38:24.045Z,13.20
2022-08-20T21:40:50.729Z,9.45
2022-08-20T21:43:18.814Z,13.73
2022-08-20T21:45:45.573Z,15.50
2022-08-20T21:48:16.224Z,8.80
2022-08-20T21:50:43.582Z,11.52
2022-08-20T21:53:11.328Z,14.98
2022-08-20T21:55:39.894Z,15.50
2022-08-20T21:58:07.078Z,11.15
2022-08-20T22:00:56.665Z,10.95
2022-08-20T22:03:27.675Z,11.10
2022-08-20T22:05:55.205Z,14.65
2022-08-20T22:08:28.504Z,12.57
2022-08-20T22:10:57.069Z,11.93
2022-08-20T22:13:24.986Z,13.05
2022-08-20T22:15:51.525Z,10.70
2022-08-20T22:18:18.140Z,16.92
2022-08-20T22:20:44.824Z,10.18
2022-08-20T22:23:12.016Z,14.60
2022-08-20T22:25:38.761Z,9.15
2022-08-20T22:28:05.322Z,9.73
2022-08-20T22:30:31.936Z,11.38
2022-08-20T22:33:07.876Z,9.32
2022-08-20T22:35:34.725Z,15.40
2022-08-20T22:38:01.386Z,12.40
2022-08-20T22:40:27.980Z,10.57
2022-08-20T22:42:54.656Z,9.90
2022-08-20T22:45:21.279Z,7.53
2022-08-20T22:47:47.903Z,7.75
2022-08-20T22:50:14.699Z,13.13
2022-08-20T22:52:43.408Z,14.45
2022-08-20T22:55:10.343Z,13.48
2022-08-20T22:57:37.661Z,10.65
2022-08-20T23:00:10.529Z,11.15
2022-08-20T23:02:37.174Z,14.05
2022-08-20T23:05:04.334Z,14.30
2022-08-20T23:07:31.115Z,14.65
2022-08-20T23:09:57.643Z,11.50
2022-08-20T23:12:24.225Z,14.68
2022-08-20T23:14:52.555Z,15.50
2022-08-20T23:17:19.562Z,16.48
2022-08-20T23:19:47.285Z,13.30
2022-08-20T23:22:14.218Z,10.70
2022-08-20T23:24:40.806Z,14.93
2022-08-20T23:27:08.606Z,14.25
2022-08-20T23:29:35.684Z,12.32
2022-08-20T23:32:02.383Z,10.02
2022-08-20T23:34:29.056Z,13.25
2022-08-20T23:36:56.705Z,17.17
2022-08-20T23:39:24.242Z,15.40
2022-08-20T23:41:50.953Z,12.65
2022-08-20T23:44:25.089Z,10.80
2022-08-20T23:46:56.637Z,13.32
2022-08-20T23:49:23.304Z,14.57
2022-08-20T23:51:49.853Z,12.55
2022-08-20T23:54:16.394Z,16.13
2022-08-20T23:56:43.002Z,15.00
2022-08-20T23:59:09.626Z,12.60
